Kailua, HI

1:47 PM HST on July 06, 2015 (GMT -1000)
Kailua Beach | | Change Station
CLOSE
Current Station
Personal Weather Station
Location: Kailua, HI
Elevation: 10 ft
Nearby Weather Stations

Elev 10 ft 21.40 °N, 157.73 °W | Updated 15 minutes ago

Scattered Clouds
Scattered Clouds
81.9 °F
Feels Like 89 °F
N
3.0
Wind Variable Wind from ENE
Gusts 6.0 mph

Today
High -- | Low -- °F
--% Chance of Precip.
Yesterday
High -- | Low -- °F
Precip. -- in
5:54 AM 7:17 PM
Waning Gibbous, 71% visible
Pressure 29.96 in
Visibility -9999.0 miles
Clouds Scattered Clouds 6000 ft
Heat Index 89 °F
Dew Point 76 °F
Humidity 81%
Rainfall 0.07 in
Snow Depth Not available.
UV 10 out of 12
Pollen Not available.
Air Quality Not available.
Flu Activity Not available.
METAR PHNG 062257Z 05012KT SCT060 29/21 A2997 RMK AO2 SLP143 T02890206 $

More Conditions Fewer Conditions

Pressure 29.96 in
Visibility -9999.0 miles
Clouds Scattered Clouds 6000 ft
Heat Index 89 °F
Dew Point 76 °F
Humidity 81%
Rainfall 0.07 in
Snow Depth Not available.
UV 10 out of 12
Pollen Not available.
Air Quality Not available.
Flu Activity Not available.
METAR PHNG 062257Z 05012KT SCT060 29/21 A2997 RMK AO2 SLP143 T02890206 $

More Conditions Fewer Conditions

10-Day Weather Forecast

×

Almanac

Astronomy

Jul. 06, 2015 Rise Set
Actual Time
Civil Twilight
Nautical Twilight
Astronomical Twilight
Moon
Length of Visible Light
Length of Day
Tomorrow will be .
, % of the Moon is Illuminated

Today's Extremes

State Highs State Lows

Community

WunderPhotos

Upload Photos

1,835,688 photos uploaded!

WunderBlogs® & News

Nearby

Air Quality

  Air Quality AQ Index Pollutant
Not available.

Snow Depth

Station Depth Elevation

Earthquake Activity

City Distance Mag. Time & Date
Minimum magnitude displayed is 2.5.

Coastal Water Temperatures

Place Temperature

Stations

Nearby Weather Stations

Station Location Temp. Windchill Dew Point Humidity Wind Precip. Elev Updated Type